Fort Worth Meacham International Airport
KFTW : rendu visible

Aérodrome :











RETROUVEZ-NOUS SUR...

 
LOGIN :

S'inscrire | Disclaimer

   EN    FR    IT 

 









Légende :    VFR   VFR Marginal   IFR   IFR Intensif   IFR Très Intensif
Visi : 
Plafond : 
>= 8 km
>= 3000ft
5 à 8 km
1000 à 3000 ft
1500m à 5 km
500 à 1000 ft
800 à 1500m
200 à 500 ft
< 800m
< 200 ft
Symboles :   Orages  Brouillard  Fortes neiges  Fortes précipitations  Vent > 20 kt






- Altitude de l'aérodrome : 710 ft
- Code IATA : FTW


KFTW - Fort Worth Meacham International

DERNIER METAR :
  • 271253Z 00000KT 10SM CLR 17/16 A2990 RMK AO2 SLP119 T01670156

METARs EXPIRÉS :
  • 271153Z AUTO 00000KT 10SM CLR 15/14 A2989 RMK AO2 SLP117 T01500144 10172 20150 53004
  • 271053Z AUTO 00000KT 10SM CLR 16/15 A2988 RMK AO2 SLP111 T01560150

TAF KFTW
Valide du 27 à 12h jusqu'au 28 à 12h UTC


271120Z 2712/2812 34004KT P6SM SCT100
FM271700 05006KT P6SM VCSH BKN100
FM272200 23006KT P6SM VCTS BKN060CB
FM280200 36005KT P6SM BKN120
FM280900 02004KT P6SM VCSH SCT012 BKN120
FIR KZFW / Amérique du Nord



MET'MAP, la Météo Aéronautique d'un coup d'oeil ! - Copyright ORBIFLY Décembre 2007 - Disclaimer

ORBIFLY MET'MAP TEAM :

Programmation & Développement : Alexandra Zaïnal
Sur une idée originale de : Baudouin d'Aumeries
Assistance à la programmation : Marc-Olivier Méhu
Soutien technique & logistique : Manuel Goepfert

Contact : metmap@orbifly.com




SOURCES & CREDITS :

   NOAA       Earth
Advisory